TKJ7PM LTBS-LTAC
Flight info
| Callsign | TKJ7PM |
|---|---|
| Flight time | 0h 45m |
| Altitude | 37000 |
| Route | ALTIN UW79 AYT UW77 DAMLA/N0460F400 UW77 HALIL |
| Aircraft | B738/M-SDE2E3FGHIRWXY/LB1 |
Departure
| Time | 2026-04-18 07:47 |
|---|---|
| Airport | Dalaman International Airport (LTBS) |
Arrival
| Time | 2026-04-18 08:32 |
|---|---|
| Airport | Esenboğa International Airport (LTAC) |
| Time | Latitude | Longitude | Altitude | Speed | Heading |
|---|---|---|---|---|---|
| 2026-04-18 07:31 | 36.71744 | 28.78862 | 13 ft | 0 kts | 285° |
| 2026-04-18 07:38 | 36.71742 | 28.78870 | 13 ft | 4 kts | 285° |
| 2026-04-18 07:38 | 36.71737 | 28.78892 | 11 ft | 4 kts | 285° |
| 2026-04-18 07:38 | 36.71730 | 28.78924 | 12 ft | 4 kts | 282° |
| 2026-04-18 07:38 | 36.71729 | 28.78952 | 11 ft | 4 kts | 227° |
| 2026-04-18 07:39 | 36.71744 | 28.78962 | 15 ft | 4 kts | 195° |
| 2026-04-18 07:39 | 36.71749 | 28.78963 | 15 ft | 0 kts | 195° |
| 2026-04-18 07:40 | 36.71744 | 28.78962 | 15 ft | 1 kts | 195° |
| 2026-04-18 07:40 | 36.71736 | 28.78959 | 11 ft | 1 kts | 195° |
| 2026-04-18 07:40 | 36.71728 | 28.78956 | 11 ft | 1 kts | 195° |
| 2026-04-18 07:41 | 36.71709 | 28.78949 | 11 ft | 5 kts | 195° |
| 2026-04-18 07:41 | 36.71661 | 28.78933 | 11 ft | 9 kts | 195° |
| 2026-04-18 07:41 | 36.71588 | 28.78907 | 11 ft | 12 kts | 196° |
| 2026-04-18 07:41 | 36.71508 | 28.78878 | 11 ft | 12 kts | 196° |
| 2026-04-18 07:42 | 36.71421 | 28.78850 | 12 ft | 14 kts | 195° |
| 2026-04-18 07:42 | 36.71359 | 28.78852 | 12 ft | 8 kts | 124° |
| 2026-04-18 07:42 | 36.71343 | 28.78918 | 12 ft | 9 kts | 102° |
| 2026-04-18 07:42 | 36.71319 | 28.79017 | 12 ft | 14 kts | 125° |
| 2026-04-18 07:43 | 36.71254 | 28.79021 | 12 ft | 10 kts | 204° |
| 2026-04-18 07:43 | 36.71177 | 28.78991 | 12 ft | 14 kts | 195° |
| 2026-04-18 07:43 | 36.71061 | 28.78951 | 12 ft | 20 kts | 195° |
| 2026-04-18 07:43 | 36.70925 | 28.78904 | 12 ft | 20 kts | 195° |
| 2026-04-18 07:44 | 36.70790 | 28.78870 | 12 ft | 20 kts | 188° |
| 2026-04-18 07:44 | 36.70663 | 28.78820 | 12 ft | 19 kts | 202° |
| 2026-04-18 07:44 | 36.70539 | 28.78774 | 12 ft | 18 kts | 195° |
| 2026-04-18 07:44 | 36.70418 | 28.78734 | 12 ft | 18 kts | 195° |
| 2026-04-18 07:45 | 36.70301 | 28.78694 | 12 ft | 17 kts | 195° |
| 2026-04-18 07:45 | 36.70189 | 28.78656 | 12 ft | 16 kts | 195° |
| 2026-04-18 07:45 | 36.70081 | 28.78646 | 12 ft | 16 kts | 147° |
| 2026-04-18 07:45 | 36.70058 | 28.78768 | 14 ft | 15 kts | 74° |
| 2026-04-18 07:46 | 36.70132 | 28.78849 | 12 ft | 15 kts | 15° |
| 2026-04-18 07:46 | 36.70410 | 28.78942 | 12 ft | 78 kts | 14° |
| 2026-04-18 07:46 | 36.71160 | 28.79199 | 12 ft | 143 kts | 15° |
| 2026-04-18 07:46 | 36.72272 | 28.79555 | 285 ft | 174 kts | 14° |
| 2026-04-18 07:47 | 36.73380 | 28.80023 | 1218 ft | 169 kts | 27° |
| 2026-04-18 07:47 | 36.74408 | 28.80801 | 1939 ft | 177 kts | 30° |
| 2026-04-18 07:47 | 36.75537 | 28.81679 | 2404 ft | 207 kts | 30° |
| 2026-04-18 07:47 | 36.76853 | 28.82689 | 2719 ft | 234 kts | 29° |
| 2026-04-18 07:48 | 36.78277 | 28.83757 | 3441 ft | 242 kts | 30° |
| 2026-04-18 07:48 | 36.79711 | 28.84822 | 4225 ft | 243 kts | 30° |
| 2026-04-18 07:48 | 36.81164 | 28.85893 | 5014 ft | 243 kts | 30° |
| 2026-04-18 07:48 | 36.82540 | 28.87141 | 5674 ft | 248 kts | 48° |
| 2026-04-18 07:49 | 36.83315 | 28.88681 | 6274 ft | 250 kts | 67° |
| 2026-04-18 07:49 | 36.83772 | 28.90775 | 6943 ft | 255 kts | 84° |
| 2026-04-18 07:49 | 36.83553 | 28.92981 | 7640 ft | 259 kts | 103° |
| 2026-04-18 07:49 | 36.83060 | 28.95233 | 8064 ft | 278 kts | 104° |
| 2026-04-18 07:50 | 36.82523 | 28.97591 | 8735 ft | 286 kts | 103° |
| 2026-04-18 07:50 | 36.81978 | 28.99996 | 9560 ft | 290 kts | 104° |
| 2026-04-18 07:50 | 36.81429 | 29.02436 | 10317 ft | 295 kts | 104° |
| 2026-04-18 07:50 | 36.80857 | 29.04993 | 10579 ft | 319 kts | 103° |
| 2026-04-18 07:51 | 36.80242 | 29.07755 | 10752 ft | 342 kts | 103° |
| 2026-04-18 07:51 | 36.79590 | 29.10676 | 11202 ft | 355 kts | 104° |
| 2026-04-18 07:51 | 36.78916 | 29.13677 | 11883 ft | 361 kts | 104° |
| 2026-04-18 07:51 | 36.78236 | 29.16703 | 12615 ft | 365 kts | 104° |
| 2026-04-18 07:52 | 36.77549 | 29.19766 | 13393 ft | 368 kts | 105° |
| 2026-04-18 07:52 | 36.76855 | 29.22858 | 14057 ft | 372 kts | 104° |
| 2026-04-18 07:52 | 36.76151 | 29.25986 | 14728 ft | 376 kts | 104° |
| 2026-04-18 07:52 | 36.75474 | 29.29131 | 15480 ft | 376 kts | 99° |
| 2026-04-18 07:53 | 36.75441 | 29.32384 | 16077 ft | 378 kts | 79° |
| 2026-04-18 07:53 | 36.75903 | 29.35627 | 16757 ft | 381 kts | 79° |
| 2026-04-18 07:53 | 36.76350 | 29.38855 | 17371 ft | 385 kts | 77° |
| 2026-04-18 07:53 | 36.77282 | 29.41974 | 17950 ft | 387 kts | 57° |
| 2026-04-18 07:54 | 36.78893 | 29.44650 | 18531 ft | 388 kts | 50° |
| 2026-04-18 07:54 | 36.80617 | 29.47266 | 19055 ft | 391 kts | 49° |
| 2026-04-18 07:54 | 36.82368 | 29.49891 | 19602 ft | 395 kts | 49° |
| 2026-04-18 07:54 | 36.84133 | 29.52539 | 20131 ft | 398 kts | 49° |
| 2026-04-18 07:55 | 36.85909 | 29.55221 | 20601 ft | 404 kts | 49° |
| 2026-04-18 07:55 | 36.87706 | 29.57950 | 21006 ft | 410 kts | 49° |
| 2026-04-18 07:55 | 36.89520 | 29.60723 | 21546 ft | 412 kts | 50° |
| 2026-04-18 07:55 | 36.91334 | 29.63506 | 22065 ft | 415 kts | 50° |
| 2026-04-18 07:56 | 36.93164 | 29.66322 | 22561 ft | 418 kts | 50° |
| 2026-04-18 07:56 | 36.95003 | 29.69157 | 23024 ft | 422 kts | 50° |
| 2026-04-18 07:56 | 36.96856 | 29.72017 | 23458 ft | 425 kts | 50° |
| 2026-04-18 07:56 | 36.98724 | 29.74905 | 23911 ft | 426 kts | 50° |
| 2026-04-18 07:57 | 37.00594 | 29.77795 | 24302 ft | 429 kts | 50° |
| 2026-04-18 07:57 | 37.02480 | 29.80715 | 24677 ft | 433 kts | 50° |
| 2026-04-18 07:57 | 37.04383 | 29.83661 | 25027 ft | 437 kts | 51° |
| 2026-04-18 07:57 | 37.06301 | 29.86634 | 25358 ft | 440 kts | 51° |
| 2026-04-18 07:58 | 37.10147 | 29.92606 | 26175 ft | 443 kts | 51° |
| 2026-04-18 07:58 | 37.12092 | 29.95629 | 26497 ft | 447 kts | 51° |
| 2026-04-18 07:58 | 37.14050 | 29.98675 | 26794 ft | 451 kts | 51° |
| 2026-04-18 07:59 | 37.16024 | 30.01748 | 27143 ft | 453 kts | 51° |
| 2026-04-18 07:59 | 37.18005 | 30.04836 | 27504 ft | 455 kts | 51° |
| 2026-04-18 07:59 | 37.19992 | 30.07936 | 27832 ft | 458 kts | 51° |
| 2026-04-18 07:59 | 37.21995 | 30.11063 | 28138 ft | 461 kts | 51° |
| 2026-04-18 08:00 | 37.24006 | 30.14206 | 28442 ft | 463 kts | 52° |
| 2026-04-18 08:00 | 37.26032 | 30.17376 | 28741 ft | 466 kts | 52° |
| 2026-04-18 08:00 | 37.28067 | 30.20563 | 28971 ft | 470 kts | 51° |
| 2026-04-18 08:00 | 37.30122 | 30.23784 | 29236 ft | 473 kts | 51° |
| 2026-04-18 08:01 | 37.32180 | 30.27012 | 29541 ft | 475 kts | 51° |
| 2026-04-18 08:01 | 37.34248 | 30.30260 | 29843 ft | 476 kts | 51° |
| 2026-04-18 08:01 | 37.36320 | 30.33516 | 30126 ft | 477 kts | 51° |
| 2026-04-18 08:01 | 37.38389 | 30.36772 | 30547 ft | 474 kts | 51° |
| 2026-04-18 08:02 | 37.40413 | 30.39959 | 31029 ft | 470 kts | 51° |
| 2026-04-18 08:02 | 37.42451 | 30.43171 | 31362 ft | 470 kts | 51° |
| 2026-04-18 08:02 | 37.44489 | 30.46387 | 31654 ft | 470 kts | 51° |
| 2026-04-18 08:02 | 37.46526 | 30.49606 | 31938 ft | 470 kts | 51° |
| 2026-04-18 08:03 | 37.48561 | 30.52825 | 32387 ft | 467 kts | 51° |
| 2026-04-18 08:03 | 37.50581 | 30.56021 | 32701 ft | 466 kts | 50° |
| 2026-04-18 08:03 | 37.52595 | 30.59212 | 33030 ft | 465 kts | 51° |
| 2026-04-18 08:03 | 37.54610 | 30.62408 | 33336 ft | 465 kts | 50° |
| 2026-04-18 08:04 | 37.56601 | 30.65571 | 33952 ft | 456 kts | 50° |
| 2026-04-18 08:04 | 37.58566 | 30.68694 | 34322 ft | 453 kts | 50° |
| 2026-04-18 08:04 | 37.60535 | 30.71826 | 34355 ft | 458 kts | 50° |
| 2026-04-18 08:05 | 37.64523 | 30.78173 | 34655 ft | 462 kts | 50° |
| 2026-04-18 08:05 | 37.66515 | 30.81350 | 34893 ft | 461 kts | 50° |
| 2026-04-18 08:05 | 37.68512 | 30.84538 | 35065 ft | 463 kts | 51° |
| 2026-04-18 08:05 | 37.70509 | 30.87730 | 35290 ft | 463 kts | 51° |
| 2026-04-18 08:06 | 37.72499 | 30.90914 | 35541 ft | 462 kts | 51° |
| 2026-04-18 08:06 | 37.74492 | 30.94103 | 35691 ft | 464 kts | 51° |
| 2026-04-18 08:06 | 37.76495 | 30.97313 | 35790 ft | 467 kts | 51° |
| 2026-04-18 08:07 | 37.80517 | 31.03769 | 35993 ft | 471 kts | 51° |
| 2026-04-18 08:07 | 37.82543 | 31.07026 | 36233 ft | 470 kts | 51° |
| 2026-04-18 08:07 | 37.84562 | 31.10275 | 36478 ft | 469 kts | 51° |
| 2026-04-18 08:07 | 37.86579 | 31.13524 | 36694 ft | 469 kts | 51° |
| 2026-04-18 08:08 | 37.88603 | 31.16787 | 36740 ft | 472 kts | 51° |
| 2026-04-18 08:08 | 37.92664 | 31.23344 | 36748 ft | 473 kts | 51° |
| 2026-04-18 08:09 | 37.96716 | 31.29901 | 36740 ft | 471 kts | 51° |
| 2026-04-18 08:09 | 38.00745 | 31.36434 | 36751 ft | 470 kts | 51° |
| 2026-04-18 08:10 | 38.04760 | 31.42955 | 36746 ft | 469 kts | 51° |
| 2026-04-18 08:10 | 38.08747 | 31.49443 | 36751 ft | 469 kts | 51° |
| 2026-04-18 08:11 | 38.13446 | 31.55126 | 36742 ft | 467 kts | 33° |
| 2026-04-18 08:11 | 38.19147 | 31.59042 | 36742 ft | 466 kts | 24° |
| 2026-04-18 08:12 | 38.25006 | 31.62621 | 36731 ft | 468 kts | 24° |
| 2026-04-18 08:12 | 38.30882 | 31.66258 | 36731 ft | 470 kts | 25° |
| 2026-04-18 08:13 | 38.36727 | 31.69935 | 36734 ft | 472 kts | 25° |
| 2026-04-18 08:13 | 38.42620 | 31.73671 | 36727 ft | 474 kts | 25° |
| 2026-04-18 08:14 | 38.48533 | 31.77428 | 36724 ft | 474 kts | 25° |
| 2026-04-18 08:14 | 38.54445 | 31.81188 | 36706 ft | 474 kts | 25° |
| 2026-04-18 08:15 | 38.60344 | 31.84947 | 36718 ft | 473 kts | 25° |
| 2026-04-18 08:15 | 38.66269 | 31.88728 | 35955 ft | 482 kts | 25° |
| 2026-04-18 08:15 | 38.69246 | 31.90630 | 35494 ft | 476 kts | 25° |
| 2026-04-18 08:16 | 38.72196 | 31.92518 | 34955 ft | 473 kts | 25° |
| 2026-04-18 08:16 | 38.75136 | 31.94402 | 34369 ft | 472 kts | 25° |
| 2026-04-18 08:16 | 38.78070 | 31.96282 | 33784 ft | 471 kts | 25° |
| 2026-04-18 08:16 | 38.81001 | 31.98162 | 33064 ft | 470 kts | 25° |
| 2026-04-18 08:17 | 38.83887 | 32.00015 | 32354 ft | 469 kts | 25° |
| 2026-04-18 08:17 | 38.86798 | 32.01885 | 31659 ft | 468 kts | 25° |
| 2026-04-18 08:17 | 38.89709 | 32.03758 | 30975 ft | 467 kts | 25° |
| 2026-04-18 08:17 | 38.92609 | 32.05625 | 30308 ft | 465 kts | 25° |
| 2026-04-18 08:18 | 38.95493 | 32.07484 | 29635 ft | 463 kts | 25° |
| 2026-04-18 08:18 | 38.98364 | 32.09337 | 28872 ft | 461 kts | 25° |
| 2026-04-18 08:18 | 39.01223 | 32.11182 | 28140 ft | 459 kts | 25° |
| 2026-04-18 08:18 | 39.04064 | 32.13018 | 27418 ft | 456 kts | 26° |
| 2026-04-18 08:19 | 39.06934 | 32.14874 | 26727 ft | 466 kts | 25° |
| 2026-04-18 08:19 | 39.09854 | 32.16762 | 26056 ft | 474 kts | 25° |
| 2026-04-18 08:19 | 39.12006 | 32.18157 | 25570 ft | 477 kts | 26° |
| 2026-04-18 08:19 | 39.14959 | 32.20073 | 24902 ft | 474 kts | 26° |
| 2026-04-18 08:20 | 39.17890 | 32.21976 | 24265 ft | 471 kts | 25° |
| 2026-04-18 08:20 | 39.20768 | 32.23847 | 23639 ft | 467 kts | 26° |
| 2026-04-18 08:20 | 39.23664 | 32.25731 | 22963 ft | 464 kts | 26° |
| 2026-04-18 08:20 | 39.26532 | 32.27597 | 22240 ft | 459 kts | 26° |
| 2026-04-18 08:21 | 39.29360 | 32.29440 | 21531 ft | 452 kts | 26° |
| 2026-04-18 08:21 | 39.32148 | 32.31258 | 20827 ft | 446 kts | 26° |
| 2026-04-18 08:21 | 39.34901 | 32.33054 | 20153 ft | 441 kts | 26° |
| 2026-04-18 08:21 | 39.37619 | 32.34846 | 19494 ft | 436 kts | 28° |
| 2026-04-18 08:22 | 39.40157 | 32.36969 | 18839 ft | 434 kts | 38° |
| 2026-04-18 08:22 | 39.42382 | 32.39609 | 18218 ft | 434 kts | 44° |
| 2026-04-18 08:22 | 39.44562 | 32.42319 | 17528 ft | 434 kts | 44° |
| 2026-04-18 08:22 | 39.46736 | 32.45003 | 16810 ft | 430 kts | 43° |
| 2026-04-18 08:23 | 39.48901 | 32.47660 | 16125 ft | 427 kts | 43° |
| 2026-04-18 08:23 | 39.51058 | 32.50294 | 15444 ft | 425 kts | 43° |
| 2026-04-18 08:23 | 39.53209 | 32.52915 | 14778 ft | 423 kts | 43° |
| 2026-04-18 08:23 | 39.55344 | 32.55515 | 14132 ft | 419 kts | 43° |
| 2026-04-18 08:24 | 39.56748 | 32.57224 | 13712 ft | 417 kts | 43° |
| 2026-04-18 08:24 | 39.58854 | 32.59790 | 13013 ft | 413 kts | 43° |
| 2026-04-18 08:24 | 39.60930 | 32.62323 | 12715 ft | 400 kts | 43° |
| 2026-04-18 08:24 | 39.62908 | 32.64738 | 12790 ft | 384 kts | 43° |
| 2026-04-18 08:25 | 39.65549 | 32.67966 | 12879 ft | 403 kts | 43° |
| 2026-04-18 08:25 | 39.67619 | 32.70454 | 12873 ft | 407 kts | 39° |
| 2026-04-18 08:25 | 39.69910 | 32.72474 | 12789 ft | 387 kts | 30° |
| 2026-04-18 08:25 | 39.71484 | 32.73567 | 12676 ft | 373 kts | 24° |
| 2026-04-18 08:26 | 39.73832 | 32.74723 | 12517 ft | 350 kts | 18° |
| 2026-04-18 08:26 | 39.76071 | 32.75718 | 12100 ft | 339 kts | 18° |
| 2026-04-18 08:26 | 39.78301 | 32.76706 | 11383 ft | 339 kts | 18° |
| 2026-04-18 08:26 | 39.80522 | 32.77696 | 10786 ft | 336 kts | 18° |
| 2026-04-18 08:27 | 39.82725 | 32.78685 | 10202 ft | 332 kts | 18° |
| 2026-04-18 08:27 | 39.84852 | 32.79647 | 10085 ft | 314 kts | 18° |
| 2026-04-18 08:27 | 39.86861 | 32.80559 | 9970 ft | 297 kts | 18° |
| 2026-04-18 08:27 | 39.88742 | 32.81415 | 9900 ft | 276 kts | 18° |
| 2026-04-18 08:28 | 39.90497 | 32.82214 | 9785 ft | 257 kts | 18° |
| 2026-04-18 08:28 | 39.92161 | 32.82971 | 9401 ft | 250 kts | 18° |
| 2026-04-18 08:28 | 39.93793 | 32.83713 | 8859 ft | 248 kts | 18° |
| 2026-04-18 08:28 | 39.95414 | 32.84451 | 8365 ft | 245 kts | 18° |
| 2026-04-18 08:29 | 39.97025 | 32.85185 | 7858 ft | 245 kts | 18° |
| 2026-04-18 08:29 | 39.98590 | 32.85992 | 7342 ft | 244 kts | 30° |
| 2026-04-18 08:29 | 39.99943 | 32.87297 | 6831 ft | 240 kts | 38° |
| 2026-04-18 08:29 | 40.01259 | 32.88614 | 6292 ft | 238 kts | 37° |
| 2026-04-18 08:30 | 40.02576 | 32.89893 | 5674 ft | 232 kts | 36° |
| 2026-04-18 08:30 | 40.03859 | 32.91103 | 5086 ft | 224 kts | 35° |
| 2026-04-18 08:30 | 40.05069 | 32.92223 | 4751 ft | 202 kts | 36° |
| 2026-04-18 08:30 | 40.06153 | 32.93260 | 4473 ft | 184 kts | 36° |
| 2026-04-18 08:31 | 40.07130 | 32.94200 | 4223 ft | 167 kts | 36° |
| 2026-04-18 08:31 | 40.08048 | 32.95081 | 3998 ft | 162 kts | 36° |
| 2026-04-18 08:31 | 40.08956 | 32.95953 | 3791 ft | 161 kts | 35° |
| 2026-04-18 08:31 | 40.09858 | 32.96819 | 3545 ft | 160 kts | 35° |
| 2026-04-18 08:32 | 40.10746 | 32.97671 | 3332 ft | 157 kts | 34° |
| 2026-04-18 08:32 | 40.11633 | 32.98533 | 3129 ft | 159 kts | 34° |
| 2026-04-18 08:32 | 40.12441 | 32.99302 | 3118 ft | 99 kts | 36° |
| 2026-04-18 08:32 | 40.12592 | 32.99593 | 3121 ft | 21 kts | 84° |
| 2026-04-18 08:33 | 40.12573 | 32.99699 | 3121 ft | 7 kts | 155° |
| 2026-04-18 08:33 | 40.12515 | 32.99681 | 3121 ft | 11 kts | 218° |
| 2026-04-18 08:33 | 40.12439 | 32.99609 | 3120 ft | 19 kts | 216° |
| 2026-04-18 08:33 | 40.12297 | 32.99474 | 3118 ft | 29 kts | 216° |
| 2026-04-18 08:34 | 40.12141 | 32.99324 | 3116 ft | 27 kts | 216° |
| 2026-04-18 08:34 | 40.11996 | 32.99184 | 3114 ft | 25 kts | 217° |
| 2026-04-18 08:34 | 40.11862 | 32.99058 | 3113 ft | 18 kts | 216° |
| 2026-04-18 08:34 | 40.11758 | 32.99105 | 3112 ft | 18 kts | 147° |
| 2026-04-18 08:35 | 40.11685 | 32.99216 | 3112 ft | 11 kts | 147° |
| 2026-04-18 08:35 | 40.11656 | 32.99233 | 3112 ft | 2 kts | 156° |